sensor_id;sensor_type;location;lat;lon;timestamp;temperature;humidity
26655;DHT22;14278;50.784;4.630;2022-12-07T00:01:10;6.50;99.90
26655;DHT22;14278;50.784;4.630;2022-12-07T00:03:36;6.70;99.90
26655;DHT22;14278;50.784;4.630;2022-12-07T00:06:04;6.50;99.90
26655;DHT22;14278;50.784;4.630;2022-12-07T00:08:31;6.50;99.90
26655;DHT22;14278;50.784;4.630;2022-12-07T00:11:11;6.70;99.90
26655;DHT22;14278;50.784;4.630;2022-12-07T00:13:38;6.60;99.90
26655;DHT22;14278;50.784;4.630;2022-12-07T00:16:06;6.80;99.90
26655;DHT22;14278;50.784;4.630;2022-12-07T00:18:32;6.60;99.90
26655;DHT22;14278;50.784;4.630;2022-12-07T00:21:09;6.50;99.90
26655;DHT22;14278;50.784;4.630;2022-12-07T00:23:35;6.50;99.90
26655;DHT22;14278;50.784;4.630;2022-12-07T00:26:09;6.10;99.90
26655;DHT22;14278;50.784;4.630;2022-12-07T00:28:36;6.20;99.90
26655;DHT22;14278;50.784;4.630;2022-12-07T00:31:05;6.60;99.90
26655;DHT22;14278;50.784;4.630;2022-12-07T00:33:32;6.60;99.90
26655;DHT22;14278;50.784;4.630;2022-12-07T00:35:59;6.80;99.90
26655;DHT22;14278;50.784;4.630;2022-12-07T00:38:28;6.90;99.90
26655;DHT22;14278;50.784;4.630;2022-12-07T00:41:00;7.10;99.90
26655;DHT22;14278;50.784;4.630;2022-12-07T00:43:27;7.20;99.90
26655;DHT22;14278;50.784;4.630;2022-12-07T00:45:54;7.10;99.90
26655;DHT22;14278;50.784;4.630;2022-12-07T00:48:21;7.00;99.90
26655;DHT22;14278;50.784;4.630;2022-12-07T00:50:47;6.90;99.90
26655;DHT22;14278;50.784;4.630;2022-12-07T00:53:13;6.40;99.90
26655;DHT22;14278;50.784;4.630;2022-12-07T00:55:39;6.40;99.90
26655;DHT22;14278;50.784;4.630;2022-12-07T00:58:05;6.50;99.90
26655;DHT22;14278;50.784;4.630;2022-12-07T01:00:31;6.60;99.90
26655;DHT22;14278;50.784;4.630;2022-12-07T01:02:57;6.30;99.90
26655;DHT22;14278;50.784;4.630;2022-12-07T01:05:23;6.20;99.90
26655;DHT22;14278;50.784;4.630;2022-12-07T01:07:48;6.00;99.90
26655;DHT22;14278;50.784;4.630;2022-12-07T01:10:14;5.70;99.90
26655;DHT22;14278;50.784;4.630;2022-12-07T01:12:41;5.80;99.90
26655;DHT22;14278;50.784;4.630;2022-12-07T01:15:07;5.80;99.90
26655;DHT22;14278;50.784;4.630;2022-12-07T01:17:34;5.60;99.90
26655;DHT22;14278;50.784;4.630;2022-12-07T01:19:59;6.10;99.90
26655;DHT22;14278;50.784;4.630;2022-12-07T01:22:25;6.00;99.90
26655;DHT22;14278;50.784;4.630;2022-12-07T01:24:52;6.00;99.90
26655;DHT22;14278;50.784;4.630;2022-12-07T01:27:18;6.00;99.90
26655;DHT22;14278;50.784;4.630;2022-12-07T01:29:44;5.90;99.90
26655;DHT22;14278;50.784;4.630;2022-12-07T01:32:10;6.10;99.90
26655;DHT22;14278;50.784;4.630;2022-12-07T01:34:35;6.30;99.90
26655;DHT22;14278;50.784;4.630;2022-12-07T01:37:02;6.60;99.90
26655;DHT22;14278;50.784;4.630;2022-12-07T01:39:28;6.80;99.90
26655;DHT22;14278;50.784;4.630;2022-12-07T01:41:54;6.40;99.90
26655;DHT22;14278;50.784;4.630;2022-12-07T01:44:26;5.80;99.90
26655;DHT22;14278;50.784;4.630;2022-12-07T01:47:00;5.40;99.90
26655;DHT22;14278;50.784;4.630;2022-12-07T01:49:36;5.00;99.90
26655;DHT22;14278;50.784;4.630;2022-12-07T01:52:22;4.70;99.90
26655;DHT22;14278;50.784;4.630;2022-12-07T01:54:52;4.70;99.90
26655;DHT22;14278;50.784;4.630;2022-12-07T01:57:19;4.60;99.90
26655;DHT22;14278;50.784;4.630;2022-12-07T01:59:47;4.90;99.90
26655;DHT22;14278;50.784;4.630;2022-12-07T02:02:23;5.20;99.90
26655;DHT22;14278;50.784;4.630;2022-12-07T02:04:52;5.60;99.90
26655;DHT22;14278;50.784;4.630;2022-12-07T02:07:20;6.10;99.90
26655;DHT22;14278;50.784;4.630;2022-12-07T02:09:46;6.10;99.90
26655;DHT22;14278;50.784;4.630;2022-12-07T02:12:12;5.80;99.90
26655;DHT22;14278;50.784;4.630;2022-12-07T02:14:38;5.50;99.90
26655;DHT22;14278;50.784;4.630;2022-12-07T02:17:39;5.40;99.90
26655;DHT22;14278;50.784;4.630;2022-12-07T02:20:26;5.60;99.90
26655;DHT22;14278;50.784;4.630;2022-12-07T02:23:04;5.90;99.90
26655;DHT22;14278;50.784;4.630;2022-12-07T02:31:12;6.10;99.90
26655;DHT22;14278;50.784;4.630;2022-12-07T02:33:52;5.60;99.90
26655;DHT22;14278;50.784;4.630;2022-12-07T02:36:21;5.50;99.90
26655;DHT22;14278;50.784;4.630;2022-12-07T02:39:00;5.20;99.90
26655;DHT22;14278;50.784;4.630;2022-12-07T02:41:40;5.60;99.90
26655;DHT22;14278;50.784;4.630;2022-12-07T02:44:11;6.00;99.90
26655;DHT22;14278;50.784;4.630;2022-12-07T02:46:44;6.30;99.90
26655;DHT22;14278;50.784;4.630;2022-12-07T02:49:13;6.10;99.90
26655;DHT22;14278;50.784;4.630;2022-12-07T02:51:42;6.30;99.90
26655;DHT22;14278;50.784;4.630;2022-12-07T02:54:15;6.60;99.90
26655;DHT22;14278;50.784;4.630;2022-12-07T02:56:49;6.70;99.90
26655;DHT22;14278;50.784;4.630;2022-12-07T03:12:42;6.40;99.90
26655;DHT22;14278;50.784;4.630;2022-12-07T03:15:16;6.40;99.90
26655;DHT22;14278;50.784;4.630;2022-12-07T03:17:45;6.50;99.90
26655;DHT22;14278;50.784;4.630;2022-12-07T03:20:13;6.60;99.90
26655;DHT22;14278;50.784;4.630;2022-12-07T03:22:43;6.40;99.90
26655;DHT22;14278;50.784;4.630;2022-12-07T03:25:14;6.20;99.90
26655;DHT22;14278;50.784;4.630;2022-12-07T03:27:52;5.80;99.90
26655;DHT22;14278;50.784;4.630;2022-12-07T03:30:24;5.80;99.90
26655;DHT22;14278;50.784;4.630;2022-12-07T03:33:08;6.00;99.90
26655;DHT22;14278;50.784;4.630;2022-12-07T03:35:41;6.10;99.90
26655;DHT22;14278;50.784;4.630;2022-12-07T03:38:25;6.10;99.90
26655;DHT22;14278;50.784;4.630;2022-12-07T03:40:54;5.70;99.90
26655;DHT22;14278;50.784;4.630;2022-12-07T03:43:23;5.70;99.90
26655;DHT22;14278;50.784;4.630;2022-12-07T03:46:15;6.00;99.90
26655;DHT22;14278;50.784;4.630;2022-12-07T03:51:25;5.70;99.90
26655;DHT22;14278;50.784;4.630;2022-12-07T03:54:02;5.60;99.90
26655;DHT22;14278;50.784;4.630;2022-12-07T03:56:31;5.70;99.90
26655;DHT22;14278;50.784;4.630;2022-12-07T03:58:58;5.90;99.90
26655;DHT22;14278;50.784;4.630;2022-12-07T04:01:24;5.90;99.90
26655;DHT22;14278;50.784;4.630;2022-12-07T04:03:50;6.20;99.90
26655;DHT22;14278;50.784;4.630;2022-12-07T04:06:16;6.40;99.90
26655;DHT22;14278;50.784;4.630;2022-12-07T04:08:42;6.60;99.90
26655;DHT22;14278;50.784;4.630;2022-12-07T04:11:08;6.60;99.90
26655;DHT22;14278;50.784;4.630;2022-12-07T04:13:34;6.40;99.90
26655;DHT22;14278;50.784;4.630;2022-12-07T04:16:20;6.30;99.90
26655;DHT22;14278;50.784;4.630;2022-12-07T04:18:46;6.00;99.90
26655;DHT22;14278;50.784;4.630;2022-12-07T04:21:12;6.10;99.90
26655;DHT22;14278;50.784;4.630;2022-12-07T04:23:37;5.60;99.90
26655;DHT22;14278;50.784;4.630;2022-12-07T04:26:04;5.70;99.90
26655;DHT22;14278;50.784;4.630;2022-12-07T04:28:30;5.60;99.90
26655;DHT22;14278;50.784;4.630;2022-12-07T04:30:55;5.80;99.90
26655;DHT22;14278;50.784;4.630;2022-12-07T04:33:21;5.80;99.90
26655;DHT22;14278;50.784;4.630;2022-12-07T04:35:47;6.10;99.90
26655;DHT22;14278;50.784;4.630;2022-12-07T04:38:13;5.90;99.90
26655;DHT22;14278;50.784;4.630;2022-12-07T04:40:39;5.70;99.90
26655;DHT22;14278;50.784;4.630;2022-12-07T04:43:05;5.80;99.90
26655;DHT22;14278;50.784;4.630;2022-12-07T04:45:30;6.00;99.90
26655;DHT22;14278;50.784;4.630;2022-12-07T04:47:56;6.00;99.90
26655;DHT22;14278;50.784;4.630;2022-12-07T04:50:22;6.10;99.90
26655;DHT22;14278;50.784;4.630;2022-12-07T04:52:48;5.90;99.90
26655;DHT22;14278;50.784;4.630;2022-12-07T04:55:14;5.70;99.90
26655;DHT22;14278;50.784;4.630;2022-12-07T04:57:40;5.20;99.90
26655;DHT22;14278;50.784;4.630;2022-12-07T05:00:06;5.10;99.90
26655;DHT22;14278;50.784;4.630;2022-12-07T05:02:32;5.10;99.90
26655;DHT22;14278;50.784;4.630;2022-12-07T05:04:58;5.10;99.90
26655;DHT22;14278;50.784;4.630;2022-12-07T05:07:24;4.90;99.90
26655;DHT22;14278;50.784;4.630;2022-12-07T05:09:50;5.00;99.90
26655;DHT22;14278;50.784;4.630;2022-12-07T05:12:15;4.90;99.90
26655;DHT22;14278;50.784;4.630;2022-12-07T05:14:41;4.70;99.90
26655;DHT22;14278;50.784;4.630;2022-12-07T05:17:08;4.90;99.90
26655;DHT22;14278;50.784;4.630;2022-12-07T05:19:33;5.00;99.90
26655;DHT22;14278;50.784;4.630;2022-12-07T05:21:59;5.10;99.90
26655;DHT22;14278;50.784;4.630;2022-12-07T05:24:25;5.10;99.90
26655;DHT22;14278;50.784;4.630;2022-12-07T05:26:51;5.10;99.90
26655;DHT22;14278;50.784;4.630;2022-12-07T05:29:19;5.10;99.90
26655;DHT22;14278;50.784;4.630;2022-12-07T05:31:45;5.40;99.90
26655;DHT22;14278;50.784;4.630;2022-12-07T05:34:11;5.50;99.90
26655;DHT22;14278;50.784;4.630;2022-12-07T05:36:37;5.70;99.90
26655;DHT22;14278;50.784;4.630;2022-12-07T05:39:03;5.40;99.90
26655;DHT22;14278;50.784;4.630;2022-12-07T05:41:29;5.10;99.90
26655;DHT22;14278;50.784;4.630;2022-12-07T05:44:13;5.40;99.90
26655;DHT22;14278;50.784;4.630;2022-12-07T05:46:39;5.60;99.90
26655;DHT22;14278;50.784;4.630;2022-12-07T05:49:05;5.50;99.90
26655;DHT22;14278;50.784;4.630;2022-12-07T05:51:32;6.00;99.90
26655;DHT22;14278;50.784;4.630;2022-12-07T05:53:58;6.10;99.90
26655;DHT22;14278;50.784;4.630;2022-12-07T05:56:24;6.10;99.90
26655;DHT22;14278;50.784;4.630;2022-12-07T05:58:49;5.90;99.90
26655;DHT22;14278;50.784;4.630;2022-12-07T06:01:34;5.30;99.90
26655;DHT22;14278;50.784;4.630;2022-12-07T06:03:59;4.90;99.90
26655;DHT22;14278;50.784;4.630;2022-12-07T06:06:25;5.60;99.90
26655;DHT22;14278;50.784;4.630;2022-12-07T06:08:51;5.90;99.90
26655;DHT22;14278;50.784;4.630;2022-12-07T06:11:17;6.10;99.90
26655;DHT22;14278;50.784;4.630;2022-12-07T06:14:01;5.90;99.90
26655;DHT22;14278;50.784;4.630;2022-12-07T06:16:27;6.20;99.90
26655;DHT22;14278;50.784;4.630;2022-12-07T06:18:53;6.20;99.90
26655;DHT22;14278;50.784;4.630;2022-12-07T06:21:19;6.10;99.90
26655;DHT22;14278;50.784;4.630;2022-12-07T06:23:45;6.00;99.90
26655;DHT22;14278;50.784;4.630;2022-12-07T06:26:15;5.60;99.90
26655;DHT22;14278;50.784;4.630;2022-12-07T06:28:41;5.70;99.90
26655;DHT22;14278;50.784;4.630;2022-12-07T06:31:11;5.70;99.90
26655;DHT22;14278;50.784;4.630;2022-12-07T06:33:38;5.80;99.90
26655;DHT22;14278;50.784;4.630;2022-12-07T06:36:04;5.50;99.90
26655;DHT22;14278;50.784;4.630;2022-12-07T06:38:30;5.60;99.90
26655;DHT22;14278;50.784;4.630;2022-12-07T06:40:56;5.50;99.90
26655;DHT22;14278;50.784;4.630;2022-12-07T06:43:22;5.80;99.90
26655;DHT22;14278;50.784;4.630;2022-12-07T06:45:48;5.80;99.90
26655;DHT22;14278;50.784;4.630;2022-12-07T06:48:14;6.00;99.90
26655;DHT22;14278;50.784;4.630;2022-12-07T06:50:40;6.00;99.90
26655;DHT22;14278;50.784;4.630;2022-12-07T06:53:09;6.20;99.90
26655;DHT22;14278;50.784;4.630;2022-12-07T06:55:35;6.20;99.90
26655;DHT22;14278;50.784;4.630;2022-12-07T06:58:01;6.10;99.90
26655;DHT22;14278;50.784;4.630;2022-12-07T07:00:28;5.90;99.90
26655;DHT22;14278;50.784;4.630;2022-12-07T07:02:54;5.80;99.90
26655;DHT22;14278;50.784;4.630;2022-12-07T07:05:20;5.80;99.90
26655;DHT22;14278;50.784;4.630;2022-12-07T07:07:49;5.80;99.90
26655;DHT22;14278;50.784;4.630;2022-12-07T07:10:15;5.90;99.90
26655;DHT22;14278;50.784;4.630;2022-12-07T07:12:41;5.70;99.90
26655;DHT22;14278;50.784;4.630;2022-12-07T07:15:07;5.60;99.90
26655;DHT22;14278;50.784;4.630;2022-12-07T07:17:33;5.70;99.90
26655;DHT22;14278;50.784;4.630;2022-12-07T07:19:59;5.70;99.90
26655;DHT22;14278;50.784;4.630;2022-12-07T07:22:24;5.80;99.90
26655;DHT22;14278;50.784;4.630;2022-12-07T07:24:50;5.80;99.90
26655;DHT22;14278;50.784;4.630;2022-12-07T07:27:16;6.00;99.90
26655;DHT22;14278;50.784;4.630;2022-12-07T07:29:42;5.70;99.90
26655;DHT22;14278;50.784;4.630;2022-12-07T07:32:08;5.40;99.90
26655;DHT22;14278;50.784;4.630;2022-12-07T07:34:34;5.30;99.90
26655;DHT22;14278;50.784;4.630;2022-12-07T07:37:00;5.30;99.90
26655;DHT22;14278;50.784;4.630;2022-12-07T07:39:26;5.50;99.90
26655;DHT22;14278;50.784;4.630;2022-12-07T07:41:52;5.30;99.90
26655;DHT22;14278;50.784;4.630;2022-12-07T07:44:18;5.10;99.90
26655;DHT22;14278;50.784;4.630;2022-12-07T07:46:43;5.10;99.90
26655;DHT22;14278;50.784;4.630;2022-12-07T07:49:10;5.20;99.90
26655;DHT22;14278;50.784;4.630;2022-12-07T07:51:36;5.10;99.90
26655;DHT22;14278;50.784;4.630;2022-12-07T07:54:03;5.60;99.90
26655;DHT22;14278;50.784;4.630;2022-12-07T07:56:29;6.20;99.90
26655;DHT22;14278;50.784;4.630;2022-12-07T07:58:55;6.50;99.90
26655;DHT22;14278;50.784;4.630;2022-12-07T08:01:21;6.80;99.90
26655;DHT22;14278;50.784;4.630;2022-12-07T08:03:47;6.60;99.90
26655;DHT22;14278;50.784;4.630;2022-12-07T08:06:14;6.50;99.90
26655;DHT22;14278;50.784;4.630;2022-12-07T08:08:40;6.50;99.90
26655;DHT22;14278;50.784;4.630;2022-12-07T08:11:06;6.10;99.90
26655;DHT22;14278;50.784;4.630;2022-12-07T08:13:32;5.70;99.90
26655;DHT22;14278;50.784;4.630;2022-12-07T08:15:58;6.10;99.90
26655;DHT22;14278;50.784;4.630;2022-12-07T08:18:29;6.40;99.90
26655;DHT22;14278;50.784;4.630;2022-12-07T08:20:59;6.40;99.90
26655;DHT22;14278;50.784;4.630;2022-12-07T08:23:26;6.10;99.90
26655;DHT22;14278;50.784;4.630;2022-12-07T08:25:52;6.10;99.90
26655;DHT22;14278;50.784;4.630;2022-12-07T08:28:18;6.00;99.90
26655;DHT22;14278;50.784;4.630;2022-12-07T08:30:44;6.10;99.90
26655;DHT22;14278;50.784;4.630;2022-12-07T08:33:10;6.20;99.90
26655;DHT22;14278;50.784;4.630;2022-12-07T08:35:36;5.90;99.90
26655;DHT22;14278;50.784;4.630;2022-12-07T08:38:02;5.90;99.90
26655;DHT22;14278;50.784;4.630;2022-12-07T08:40:29;5.90;99.90
26655;DHT22;14278;50.784;4.630;2022-12-07T08:42:56;6.00;99.90
26655;DHT22;14278;50.784;4.630;2022-12-07T08:45:22;5.90;99.90
26655;DHT22;14278;50.784;4.630;2022-12-07T08:47:59;6.20;99.90
26655;DHT22;14278;50.784;4.630;2022-12-07T08:50:26;6.70;99.90
26655;DHT22;14278;50.784;4.630;2022-12-07T08:52:55;7.40;99.90
26655;DHT22;14278;50.784;4.630;2022-12-07T08:55:23;7.80;99.90
26655;DHT22;14278;50.784;4.630;2022-12-07T08:57:49;8.10;99.90
26655;DHT22;14278;50.784;4.630;2022-12-07T09:00:16;8.50;99.90
26655;DHT22;14278;50.784;4.630;2022-12-07T09:02:45;8.60;99.90
26655;DHT22;14278;50.784;4.630;2022-12-07T09:05:12;9.00;99.90
26655;DHT22;14278;50.784;4.630;2022-12-07T09:07:42;9.30;99.90
26655;DHT22;14278;50.784;4.630;2022-12-07T09:10:09;9.30;99.90
26655;DHT22;14278;50.784;4.630;2022-12-07T09:12:34;9.80;99.90
26655;DHT22;14278;50.784;4.630;2022-12-07T09:15:00;9.80;99.90
26655;DHT22;14278;50.784;4.630;2022-12-07T09:17:26;10.40;99.90
26655;DHT22;14278;50.784;4.630;2022-12-07T09:19:52;10.60;99.90
26655;DHT22;14278;50.784;4.630;2022-12-07T09:22:18;10.80;99.90
26655;DHT22;14278;50.784;4.630;2022-12-07T09:24:44;10.40;99.90
26655;DHT22;14278;50.784;4.630;2022-12-07T09:27:11;9.90;99.90
26655;DHT22;14278;50.784;4.630;2022-12-07T09:29:37;9.60;99.90
26655;DHT22;14278;50.784;4.630;2022-12-07T09:32:03;9.20;99.90
26655;DHT22;14278;50.784;4.630;2022-12-07T09:34:32;8.10;99.90
26655;DHT22;14278;50.784;4.630;2022-12-07T09:37:00;8.30;99.90
26655;DHT22;14278;50.784;4.630;2022-12-07T09:39:26;8.40;99.90
26655;DHT22;14278;50.784;4.630;2022-12-07T09:41:52;8.10;99.90
26655;DHT22;14278;50.784;4.630;2022-12-07T09:44:24;8.20;99.90
26655;DHT22;14278;50.784;4.630;2022-12-07T09:46:51;8.70;99.90
26655;DHT22;14278;50.784;4.630;2022-12-07T09:49:20;8.90;99.90
26655;DHT22;14278;50.784;4.630;2022-12-07T09:51:47;9.00;99.90
26655;DHT22;14278;50.784;4.630;2022-12-07T09:54:16;8.80;99.90
26655;DHT22;14278;50.784;4.630;2022-12-07T09:56:45;8.50;99.90
26655;DHT22;14278;50.784;4.630;2022-12-07T09:59:17;8.50;99.90
26655;DHT22;14278;50.784;4.630;2022-12-07T10:01:48;8.60;99.90
26655;DHT22;14278;50.784;4.630;2022-12-07T10:04:22;8.70;99.90
26655;DHT22;14278;50.784;4.630;2022-12-07T10:06:50;8.50;99.90
26655;DHT22;14278;50.784;4.630;2022-12-07T10:09:19;9.10;99.90
26655;DHT22;14278;50.784;4.630;2022-12-07T10:12:10;9.40;99.90
26655;DHT22;14278;50.784;4.630;2022-12-07T10:14:57;9.30;99.90
26655;DHT22;14278;50.784;4.630;2022-12-07T10:17:41;9.00;99.90
26655;DHT22;14278;50.784;4.630;2022-12-07T10:20:20;8.80;99.90
26655;DHT22;14278;50.784;4.630;2022-12-07T10:22:59;9.30;99.90
26655;DHT22;14278;50.784;4.630;2022-12-07T10:25:29;9.20;99.90
26655;DHT22;14278;50.784;4.630;2022-12-07T10:28:17;9.40;99.90
26655;DHT22;14278;50.784;4.630;2022-12-07T10:31:15;9.30;99.90
26655;DHT22;14278;50.784;4.630;2022-12-07T10:33:55;9.20;99.90
26655;DHT22;14278;50.784;4.630;2022-12-07T10:36:37;8.90;99.90
26655;DHT22;14278;50.784;4.630;2022-12-07T10:39:14;8.60;99.90
26655;DHT22;14278;50.784;4.630;2022-12-07T10:44:24;9.10;99.90
26655;DHT22;14278;50.784;4.630;2022-12-07T10:46:59;9.30;99.90
26655;DHT22;14278;50.784;4.630;2022-12-07T11:00:06;8.90;99.90
26655;DHT22;14278;50.784;4.630;2022-12-07T11:10:55;9.70;99.90
26655;DHT22;14278;50.784;4.630;2022-12-07T11:16:24;9.90;99.90
26655;DHT22;14278;50.784;4.630;2022-12-07T11:22:00;8.80;99.90
26655;DHT22;14278;50.784;4.630;2022-12-07T11:24:49;8.50;99.90
26655;DHT22;14278;50.784;4.630;2022-12-07T11:27:39;8.90;99.90
26655;DHT22;14278;50.784;4.630;2022-12-07T11:30:22;8.90;99.90
26655;DHT22;14278;50.784;4.630;2022-12-07T11:38:15;9.30;99.90
26655;DHT22;14278;50.784;4.630;2022-12-07T11:40:48;10.00;99.90
26655;DHT22;14278;50.784;4.630;2022-12-07T11:43:26;10.00;99.90
26655;DHT22;14278;50.784;4.630;2022-12-07T11:46:14;10.30;99.90
26655;DHT22;14278;50.784;4.630;2022-12-07T11:48:51;10.00;99.90
26655;DHT22;14278;50.784;4.630;2022-12-07T11:51:21;9.70;99.90
26655;DHT22;14278;50.784;4.630;2022-12-07T11:53:58;9.80;99.90
26655;DHT22;14278;50.784;4.630;2022-12-07T11:56:28;10.00;99.90
26655;DHT22;14278;50.784;4.630;2022-12-07T12:06:40;11.30;99.90
26655;DHT22;14278;50.784;4.630;2022-12-07T12:09:16;11.00;99.90
26655;DHT22;14278;50.784;4.630;2022-12-07T12:14:37;10.50;99.90
26655;DHT22;14278;50.784;4.630;2022-12-07T12:20:02;11.10;99.90
26655;DHT22;14278;50.784;4.630;2022-12-07T12:22:38;11.20;99.90
26655;DHT22;14278;50.784;4.630;2022-12-07T12:25:07;11.00;99.90
26655;DHT22;14278;50.784;4.630;2022-12-07T12:27:39;10.40;99.90
26655;DHT22;14278;50.784;4.630;2022-12-07T12:30:07;10.30;99.90
26655;DHT22;14278;50.784;4.630;2022-12-07T12:32:49;10.50;99.90
26655;DHT22;14278;50.784;4.630;2022-12-07T12:35:34;9.90;99.90
26655;DHT22;14278;50.784;4.630;2022-12-07T12:38:30;10.50;99.90
26655;DHT22;14278;50.784;4.630;2022-12-07T12:41:01;10.60;99.90
26655;DHT22;14278;50.784;4.630;2022-12-07T12:51:49;10.10;99.90
26655;DHT22;14278;50.784;4.630;2022-12-07T12:54:21;10.00;99.90
26655;DHT22;14278;50.784;4.630;2022-12-07T12:57:09;9.60;99.90
26655;DHT22;14278;50.784;4.630;2022-12-07T13:02:52;8.90;99.90
26655;DHT22;14278;50.784;4.630;2022-12-07T13:05:26;8.60;99.90
26655;DHT22;14278;50.784;4.630;2022-12-07T13:08:24;8.30;99.90
26655;DHT22;14278;50.784;4.630;2022-12-07T13:10:48;8.60;99.90
26655;DHT22;14278;50.784;4.630;2022-12-07T13:26:03;8.70;99.90
26655;DHT22;14278;50.784;4.630;2022-12-07T13:28:37;8.60;99.90
26655;DHT22;14278;50.784;4.630;2022-12-07T13:33:49;8.20;99.90
26655;DHT22;14278;50.784;4.630;2022-12-07T13:36:27;8.10;99.90
26655;DHT22;14278;50.784;4.630;2022-12-07T13:38:58;8.30;99.90
26655;DHT22;14278;50.784;4.630;2022-12-07T13:41:29;8.40;99.90
26655;DHT22;14278;50.784;4.630;2022-12-07T13:44:15;8.30;99.90
26655;DHT22;14278;50.784;4.630;2022-12-07T13:49:31;8.10;99.90
26655;DHT22;14278;50.784;4.630;2022-12-07T13:54:57;8.10;99.90
26655;DHT22;14278;50.784;4.630;2022-12-07T13:57:25;8.10;99.90
26655;DHT22;14278;50.784;4.630;2022-12-07T13:59:51;8.30;99.90
26655;DHT22;14278;50.784;4.630;2022-12-07T14:02:28;8.50;99.90
26655;DHT22;14278;50.784;4.630;2022-12-07T14:05:12;8.50;99.90
26655;DHT22;14278;50.784;4.630;2022-12-07T14:10:55;8.50;99.90
26655;DHT22;14278;50.784;4.630;2022-12-07T14:13:35;8.60;99.90
26655;DHT22;14278;50.784;4.630;2022-12-07T14:16:03;8.60;99.90
26655;DHT22;14278;50.784;4.630;2022-12-07T14:18:40;8.20;99.90
26655;DHT22;14278;50.784;4.630;2022-12-07T14:23:36;8.30;99.90
26655;DHT22;14278;50.784;4.630;2022-12-07T14:26:07;8.30;99.90
26655;DHT22;14278;50.784;4.630;2022-12-07T14:28:37;8.60;99.90
26655;DHT22;14278;50.784;4.630;2022-12-07T14:31:07;8.60;99.90
26655;DHT22;14278;50.784;4.630;2022-12-07T14:33:33;8.70;99.90
26655;DHT22;14278;50.784;4.630;2022-12-07T14:35:59;8.80;99.90
26655;DHT22;14278;50.784;4.630;2022-12-07T14:38:26;9.00;99.90
26655;DHT22;14278;50.784;4.630;2022-12-07T14:40:53;8.70;99.90
26655;DHT22;14278;50.784;4.630;2022-12-07T14:43:20;8.60;99.90
26655;DHT22;14278;50.784;4.630;2022-12-07T14:45:46;8.30;99.90
26655;DHT22;14278;50.784;4.630;2022-12-07T14:48:13;8.50;99.90
26655;DHT22;14278;50.784;4.630;2022-12-07T14:50:50;7.90;99.90
26655;DHT22;14278;50.784;4.630;2022-12-07T14:53:19;7.70;99.90
26655;DHT22;14278;50.784;4.630;2022-12-07T14:55:47;7.90;99.90
26655;DHT22;14278;50.784;4.630;2022-12-07T14:58:15;7.80;99.90
26655;DHT22;14278;50.784;4.630;2022-12-07T15:00:41;7.70;99.90
26655;DHT22;14278;50.784;4.630;2022-12-07T15:03:08;7.70;99.90
26655;DHT22;14278;50.784;4.630;2022-12-07T15:05:34;7.80;99.90
26655;DHT22;14278;50.784;4.630;2022-12-07T15:08:01;7.60;99.90
26655;DHT22;14278;50.784;4.630;2022-12-07T15:10:32;7.50;99.90
26655;DHT22;14278;50.784;4.630;2022-12-07T15:13:02;7.60;99.90
26655;DHT22;14278;50.784;4.630;2022-12-07T15:15:51;7.90;99.90
26655;DHT22;14278;50.784;4.630;2022-12-07T15:18:19;7.80;99.90
26655;DHT22;14278;50.784;4.630;2022-12-07T15:20:46;7.50;99.90
26655;DHT22;14278;50.784;4.630;2022-12-07T15:23:12;7.20;99.90
26655;DHT22;14278;50.784;4.630;2022-12-07T15:25:45;7.40;99.90
26655;DHT22;14278;50.784;4.630;2022-12-07T15:28:11;7.50;99.90
26655;DHT22;14278;50.784;4.630;2022-12-07T15:30:40;7.60;99.90
26655;DHT22;14278;50.784;4.630;2022-12-07T15:33:06;7.50;99.90
26655;DHT22;14278;50.784;4.630;2022-12-07T15:35:31;7.40;99.90
26655;DHT22;14278;50.784;4.630;2022-12-07T15:37:57;7.20;99.90
26655;DHT22;14278;50.784;4.630;2022-12-07T15:40:23;7.50;99.90
26655;DHT22;14278;50.784;4.630;2022-12-07T15:42:50;7.60;99.90
26655;DHT22;14278;50.784;4.630;2022-12-07T15:45:15;7.40;99.90
26655;DHT22;14278;50.784;4.630;2022-12-07T15:47:43;7.40;99.90
26655;DHT22;14278;50.784;4.630;2022-12-07T15:50:13;7.40;99.90
26655;DHT22;14278;50.784;4.630;2022-12-07T15:52:39;7.60;99.90
26655;DHT22;14278;50.784;4.630;2022-12-07T15:55:06;7.70;99.90
26655;DHT22;14278;50.784;4.630;2022-12-07T15:57:34;7.50;99.90
26655;DHT22;14278;50.784;4.630;2022-12-07T16:00:00;7.40;99.90
26655;DHT22;14278;50.784;4.630;2022-12-07T16:02:26;7.40;99.90
26655;DHT22;14278;50.784;4.630;2022-12-07T16:04:52;7.60;99.90
26655;DHT22;14278;50.784;4.630;2022-12-07T16:07:19;7.60;99.90
26655;DHT22;14278;50.784;4.630;2022-12-07T16:09:46;7.70;99.90
26655;DHT22;14278;50.784;4.630;2022-12-07T16:12:13;7.80;99.90
26655;DHT22;14278;50.784;4.630;2022-12-07T16:14:39;7.60;99.90
26655;DHT22;14278;50.784;4.630;2022-12-07T16:17:06;7.40;99.90
26655;DHT22;14278;50.784;4.630;2022-12-07T16:19:35;6.90;99.90
26655;DHT22;14278;50.784;4.630;2022-12-07T16:22:01;7.00;99.90
26655;DHT22;14278;50.784;4.630;2022-12-07T16:24:27;6.90;99.90
26655;DHT22;14278;50.784;4.630;2022-12-07T16:26:53;7.30;99.90
26655;DHT22;14278;50.784;4.630;2022-12-07T16:29:20;7.20;99.90
26655;DHT22;14278;50.784;4.630;2022-12-07T16:31:48;7.50;99.90
26655;DHT22;14278;50.784;4.630;2022-12-07T16:34:14;7.60;99.90
26655;DHT22;14278;50.784;4.630;2022-12-07T16:36:40;7.50;99.90
26655;DHT22;14278;50.784;4.630;2022-12-07T16:39:06;7.60;99.90
26655;DHT22;14278;50.784;4.630;2022-12-07T16:41:32;7.30;99.90
26655;DHT22;14278;50.784;4.630;2022-12-07T16:44:03;7.00;99.90
26655;DHT22;14278;50.784;4.630;2022-12-07T16:46:32;7.20;99.90
26655;DHT22;14278;50.784;4.630;2022-12-07T16:48:58;7.40;99.90
26655;DHT22;14278;50.784;4.630;2022-12-07T16:51:23;7.30;99.90
26655;DHT22;14278;50.784;4.630;2022-12-07T16:53:52;7.30;99.90
26655;DHT22;14278;50.784;4.630;2022-12-07T16:56:20;7.30;99.90
26655;DHT22;14278;50.784;4.630;2022-12-07T16:58:46;7.40;99.90
26655;DHT22;14278;50.784;4.630;2022-12-07T17:01:21;7.20;99.90
26655;DHT22;14278;50.784;4.630;2022-12-07T17:03:48;7.00;99.90
26655;DHT22;14278;50.784;4.630;2022-12-07T17:06:22;6.80;99.90
26655;DHT22;14278;50.784;4.630;2022-12-07T17:08:50;6.70;99.90
26655;DHT22;14278;50.784;4.630;2022-12-07T17:11:26;7.00;99.90
26655;DHT22;14278;50.784;4.630;2022-12-07T17:13:52;6.90;99.90
26655;DHT22;14278;50.784;4.630;2022-12-07T17:16:36;6.90;99.90
26655;DHT22;14278;50.784;4.630;2022-12-07T17:19:07;7.00;99.90
26655;DHT22;14278;50.784;4.630;2022-12-07T17:21:34;6.80;99.90
26655;DHT22;14278;50.784;4.630;2022-12-07T17:24:01;6.90;99.90
26655;DHT22;14278;50.784;4.630;2022-12-07T17:26:28;7.10;99.90
26655;DHT22;14278;50.784;4.630;2022-12-07T17:28:55;6.80;99.90
26655;DHT22;14278;50.784;4.630;2022-12-07T17:31:22;6.80;99.90
26655;DHT22;14278;50.784;4.630;2022-12-07T17:33:49;7.20;99.90
26655;DHT22;14278;50.784;4.630;2022-12-07T17:36:17;7.10;99.90
26655;DHT22;14278;50.784;4.630;2022-12-07T17:38:44;7.20;99.90
26655;DHT22;14278;50.784;4.630;2022-12-07T17:41:19;7.10;99.90
26655;DHT22;14278;50.784;4.630;2022-12-07T17:44:05;7.30;99.90
26655;DHT22;14278;50.784;4.630;2022-12-07T17:46:31;7.40;99.90